createdAt,value
2023-03-29T00:02:18.124Z,83.00
2023-03-29T00:04:49.830Z,84.10
2023-03-29T00:07:17.561Z,84.60
2023-03-29T00:09:45.098Z,84.80
2023-03-29T00:12:12.709Z,84.60
2023-03-29T00:14:42.930Z,84.90
2023-03-29T00:17:10.955Z,84.70
2023-03-29T00:19:38.430Z,84.30
2023-03-29T00:22:22.522Z,85.30
2023-03-29T00:24:55.443Z,84.80
2023-03-29T00:27:23.092Z,85.90
2023-03-29T00:29:50.708Z,86.60
2023-03-29T00:32:18.602Z,86.80
2023-03-29T00:34:46.379Z,86.70
2023-03-29T00:37:15.026Z,86.50
2023-03-29T00:39:42.486Z,86.20
2023-03-29T00:42:17.471Z,85.10
2023-03-29T00:45:10.163Z,85.20
2023-03-29T00:48:08.595Z,85.50
2023-03-29T00:50:57.392Z,84.60
2023-03-29T00:53:52.155Z,84.90
2023-03-29T00:56:39.945Z,84.40
2023-03-29T00:59:20.522Z,85.90
2023-03-29T01:01:59.072Z,85.50
2023-03-29T01:04:30.918Z,84.20
2023-03-29T01:07:18.071Z,85.80
2023-03-29T01:09:56.895Z,86.10
2023-03-29T01:12:40.093Z,84.80
2023-03-29T01:15:40.725Z,84.80
2023-03-29T01:18:43.085Z,84.60
2023-03-29T01:25:35.857Z,85.80
2023-03-29T01:28:40.945Z,84.50
2023-03-29T01:31:39.776Z,84.70
2023-03-29T01:34:26.034Z,84.60
2023-03-29T01:37:11.609Z,85.00
2023-03-29T01:39:41.684Z,85.00
2023-03-29T01:42:21.568Z,84.50
2023-03-29T01:45:26.735Z,84.10
2023-03-29T01:48:33.192Z,84.80
2023-03-29T01:51:16.097Z,84.90
2023-03-29T01:54:19.122Z,84.50
2023-03-29T01:56:51.313Z,84.80
2023-03-29T01:59:35.853Z,84.20
2023-03-29T02:02:14.532Z,83.40
2023-03-29T02:04:54.604Z,83.40
2023-03-29T02:07:31.334Z,83.60
2023-03-29T02:10:00.461Z,83.90
2023-03-29T02:12:27.748Z,83.60
2023-03-29T02:14:58.157Z,83.60
2023-03-29T02:17:28.480Z,83.90
2023-03-29T02:20:14.691Z,83.00
2023-03-29T02:23:06.062Z,83.00
2023-03-29T02:25:37.641Z,82.90
2023-03-29T02:28:07.345Z,82.40
2023-03-29T02:31:03.568Z,82.30
2023-03-29T02:34:10.762Z,83.20
2023-03-29T02:36:51.116Z,82.60
2023-03-29T02:39:21.304Z,82.00
2023-03-29T02:41:55.409Z,82.00
2023-03-29T02:44:32.796Z,81.30
2023-03-29T02:47:27.309Z,80.80
2023-03-29T02:49:55.439Z,82.40
2023-03-29T02:52:40.979Z,81.80
2023-03-29T02:55:18.149Z,81.80
2023-03-29T02:57:45.811Z,82.20
2023-03-29T03:00:14.791Z,82.20
2023-03-29T03:02:42.978Z,81.90
2023-03-29T03:05:11.506Z,81.80
2023-03-29T03:07:40.738Z,82.10
2023-03-29T03:10:10.925Z,80.90
2023-03-29T03:12:39.042Z,80.80
2023-03-29T03:15:07.790Z,81.20
2023-03-29T03:17:41.882Z,80.90
2023-03-29T03:20:14.883Z,81.40
2023-03-29T03:22:49.249Z,80.60
2023-03-29T03:25:20.818Z,81.70
2023-03-29T03:27:50.643Z,81.70
2023-03-29T03:30:21.498Z,82.30
2023-03-29T03:33:11.564Z,83.10
2023-03-29T03:36:06.411Z,83.60
2023-03-29T03:38:38.798Z,83.40
2023-03-29T03:41:07.641Z,84.30
2023-03-29T03:43:36.200Z,83.60
2023-03-29T03:46:03.981Z,84.00
2023-03-29T03:48:31.657Z,83.60
2023-03-29T03:51:06.978Z,84.50
2023-03-29T03:53:35.745Z,84.70
2023-03-29T03:56:16.419Z,85.10
2023-03-29T03:59:05.876Z,85.10
2023-03-29T04:01:45.472Z,85.40
2023-03-29T04:04:21.304Z,84.50
2023-03-29T04:07:22.679Z,85.10
2023-03-29T04:10:23.386Z,85.20
2023-03-29T04:12:54.540Z,85.80
2023-03-29T04:15:22.129Z,86.50
2023-03-29T04:17:59.042Z,86.20
2023-03-29T04:20:31.355Z,85.40
2023-03-29T04:23:00.510Z,85.60
2023-03-29T04:25:29.695Z,85.60
2023-03-29T04:28:26.754Z,85.60
2023-03-29T04:31:13.235Z,86.00
2023-03-29T04:33:49.202Z,86.00
2023-03-29T04:36:16.616Z,86.60
2023-03-29T04:38:47.401Z,86.30
2023-03-29T04:41:15.955Z,86.40
2023-03-29T04:44:12.388Z,85.90
2023-03-29T04:46:40.753Z,85.90
2023-03-29T04:49:16.981Z,86.20
2023-03-29T04:51:48.635Z,86.50
2023-03-29T04:54:19.998Z,86.50
2023-03-29T04:57:22.998Z,86.50
2023-03-29T04:59:53.153Z,85.70
2023-03-29T05:02:49.774Z,86.50
2023-03-29T05:05:17.640Z,85.60
2023-03-29T05:07:48.104Z,87.00
2023-03-29T05:10:18.908Z,86.70
2023-03-29T05:12:47.235Z,86.20
2023-03-29T05:15:14.828Z,86.00
2023-03-29T05:17:43.974Z,85.60
2023-03-29T05:20:13.498Z,85.30
2023-03-29T05:22:43.717Z,84.80
2023-03-29T05:25:18.884Z,84.70
2023-03-29T05:27:46.914Z,85.90
2023-03-29T05:30:15.687Z,84.60
2023-03-29T05:33:05.750Z,84.80
2023-03-29T05:35:37.304Z,85.10
2023-03-29T05:38:11.400Z,84.40
2023-03-29T05:40:40.287Z,85.70
2023-03-29T05:43:30.250Z,84.10
2023-03-29T05:46:00.508Z,85.30
2023-03-29T05:48:33.334Z,83.60
2023-03-29T05:51:01.268Z,83.80
2023-03-29T05:53:31.316Z,82.60
2023-03-29T05:56:00.217Z,83.30
2023-03-29T05:58:28.809Z,83.80
2023-03-29T06:01:01.568Z,83.60
2023-03-29T06:03:47.460Z,83.00
2023-03-29T06:06:21.473Z,83.30
2023-03-29T06:08:52.063Z,83.20
2023-03-29T06:11:25.879Z,82.00
2023-03-29T06:14:19.028Z,81.50
2023-03-29T06:16:52.345Z,81.40
2023-03-29T06:19:20.358Z,81.00
2023-03-29T06:21:47.613Z,80.40
2023-03-29T06:24:21.466Z,81.10
2023-03-29T06:26:54.841Z,80.60
2023-03-29T06:29:23.413Z,80.40
2023-03-29T06:31:51.942Z,80.20
2023-03-29T06:34:38.885Z,79.10
2023-03-29T06:37:23.776Z,79.40
2023-03-29T06:40:01.154Z,79.30
2023-03-29T06:42:36.051Z,79.30
2023-03-29T06:45:29.471Z,79.60
2023-03-29T06:48:23.866Z,79.40
2023-03-29T06:59:59.023Z,79.30
2023-03-29T07:03:37.791Z,78.40
2023-03-29T07:06:53.382Z,77.20
2023-03-29T07:09:22.360Z,76.30
2023-03-29T07:12:10.687Z,76.30
2023-03-29T07:14:41.051Z,76.10
2023-03-29T07:21:50.098Z,75.00
2023-03-29T07:24:07.215Z,74.50
2023-03-29T07:27:14.183Z,74.70
2023-03-29T07:30:40.795Z,74.00
2023-03-29T07:34:05.042Z,72.90
2023-03-29T07:37:48.780Z,72.70
2023-03-29T07:40:29.006Z,72.20
2023-03-29T07:43:02.968Z,72.20
2023-03-29T07:46:25.840Z,71.90
2023-03-29T07:49:53.161Z,71.60
2023-03-29T07:52:33.100Z,70.80
2023-03-29T08:00:48.950Z,70.30
2023-03-29T08:11:17.614Z,70.20
2023-03-29T08:13:52.550Z,69.80
2023-03-29T08:14:06.275Z,69.10
2023-03-29T08:16:57.186Z,68.90
2023-03-29T08:19:28.770Z,68.60
2023-03-29T08:22:06.969Z,68.70
2023-03-29T08:25:07.210Z,68.30
2023-03-29T08:27:40.451Z,67.80
2023-03-29T08:30:14.988Z,67.50
2023-03-29T08:32:44.853Z,66.40
2023-03-29T08:35:16.880Z,68.00
2023-03-29T08:38:16.244Z,65.40
2023-03-29T08:42:04.032Z,65.70
2023-03-29T08:45:44.484Z,65.00
2023-03-29T08:49:09.663Z,66.30
2023-03-29T08:52:08.183Z,66.60
2023-03-29T08:55:23.206Z,66.60
2023-03-29T08:58:42.362Z,66.90
2023-03-29T09:01:35.254Z,67.40
2023-03-29T09:04:19.758Z,67.00
2023-03-29T09:07:26.541Z,66.90
2023-03-29T09:14:30.141Z,66.20
2023-03-29T09:18:03.101Z,66.50
2023-03-29T09:20:53.881Z,66.70
2023-03-29T09:24:15.568Z,65.60
2023-03-29T09:27:16.918Z,64.10
2023-03-29T09:30:07.204Z,64.50
2023-03-29T09:33:10.682Z,65.20
2023-03-29T09:36:45.116Z,64.00
2023-03-29T09:39:17.202Z,64.50
2023-03-29T09:42:04.932Z,63.70
2023-03-29T09:44:47.129Z,61.90
2023-03-29T09:47:36.308Z,62.90
2023-03-29T09:50:38.210Z,62.50
2023-03-29T09:53:10.641Z,62.40
2023-03-29T09:55:50.454Z,62.00
2023-03-29T09:58:33.776Z,61.70
2023-03-29T10:01:09.439Z,63.10
2023-03-29T10:03:40.693Z,62.80
2023-03-29T10:06:15.647Z,63.10
2023-03-29T10:08:58.774Z,63.10
2023-03-29T10:11:37.102Z,62.10
2023-03-29T10:14:16.554Z,63.30
2023-03-29T10:16:46.635Z,64.20
2023-03-29T10:19:30.968Z,62.70
2023-03-29T10:22:06.673Z,63.20
2023-03-29T10:24:34.507Z,61.80
2023-03-29T10:27:11.920Z,60.60
2023-03-29T10:29:43.036Z,60.40
2023-03-29T10:32:23.081Z,61.00
2023-03-29T10:34:54.192Z,59.80
2023-03-29T10:37:23.678Z,60.00
2023-03-29T10:39:51.883Z,61.80
2023-03-29T10:42:31.738Z,62.00
2023-03-29T10:45:38.410Z,61.10
2023-03-29T10:49:40.698Z,60.50
2023-03-29T10:52:21.471Z,62.50
2023-03-29T10:55:31.527Z,62.10
2023-03-29T10:58:31.256Z,61.90
2023-03-29T11:01:00.248Z,62.40
2023-03-29T11:04:00.241Z,61.80
2023-03-29T11:06:57.845Z,61.40
2023-03-29T11:09:55.667Z,60.90
2023-03-29T11:13:30.228Z,60.60
2023-03-29T11:16:37.652Z,58.60
2023-03-29T11:20:16.388Z,59.10
2023-03-29T11:23:43.837Z,59.30
2023-03-29T11:26:57.461Z,61.10
2023-03-29T11:30:04.405Z,62.70
2023-03-29T11:33:40.607Z,62.60
2023-03-29T11:36:52.013Z,62.50
2023-03-29T11:39:49.970Z,61.30
2023-03-29T11:42:37.909Z,61.30
2023-03-29T11:45:51.473Z,60.80
2023-03-29T11:48:42.455Z,59.90
2023-03-29T11:52:15.211Z,58.60
2023-03-29T12:00:58.204Z,57.00
2023-03-29T12:05:59.055Z,56.50
2023-03-29T12:09:52.126Z,57.30
2023-03-29T12:13:34.388Z,56.90
2023-03-29T12:16:54.360Z,55.80
2023-03-29T12:20:34.986Z,57.10
2023-03-29T12:23:20.098Z,57.80
2023-03-29T12:26:46.401Z,58.00
2023-03-29T12:34:12.962Z,56.70
2023-03-29T12:38:21.065Z,56.20
2023-03-29T12:41:58.727Z,57.70
2023-03-29T12:46:09.325Z,57.40
2023-03-29T12:52:36.094Z,56.20
2023-03-29T13:00:26.193Z,56.40
2023-03-29T13:04:25.241Z,57.40
2023-03-29T13:07:43.206Z,57.10
2023-03-29T13:19:42.032Z,54.60
2023-03-29T13:23:11.578Z,54.90
2023-03-29T13:26:26.267Z,54.90
2023-03-29T13:29:49.118Z,55.10
2023-03-29T13:33:28.294Z,55.20
2023-03-29T13:36:33.143Z,55.50
2023-03-29T13:43:48.711Z,56.50
2023-03-29T13:48:04.333Z,56.50
2023-03-29T14:01:09.016Z,57.30
2023-03-29T14:10:19.233Z,57.80
2023-03-29T14:21:07.133Z,59.10
2023-03-29T14:24:12.310Z,58.30
2023-03-29T14:27:55.000Z,57.60
2023-03-29T14:31:03.574Z,57.70
2023-03-29T14:33:39.403Z,59.10
2023-03-29T14:36:44.772Z,59.70
2023-03-29T14:39:42.324Z,59.80
2023-03-29T14:42:44.490Z,60.20
2023-03-29T14:51:12.882Z,61.10
2023-03-29T14:58:52.057Z,62.10
2023-03-29T15:01:45.943Z,62.40
2023-03-29T15:04:57.197Z,62.60
2023-03-29T15:07:58.936Z,62.90
2023-03-29T15:14:21.805Z,63.80
2023-03-29T15:17:51.610Z,64.50
2023-03-29T15:20:47.065Z,64.70
2023-03-29T15:24:09.465Z,65.10
2023-03-29T15:34:21.801Z,69.00
2023-03-29T15:37:39.332Z,68.80
2023-03-29T15:44:43.544Z,67.90
2023-03-29T15:52:32.081Z,67.10
2023-03-29T15:55:30.751Z,66.80
2023-03-29T15:58:50.924Z,66.90
2023-03-29T16:05:20.762Z,67.40
2023-03-29T16:07:51.705Z,67.40
2023-03-29T16:10:49.465Z,67.60
2023-03-29T16:13:39.993Z,67.60
2023-03-29T16:16:12.599Z,67.60
2023-03-29T16:18:40.679Z,67.80
2023-03-29T16:21:18.656Z,67.80
2023-03-29T16:23:54.186Z,67.70
2023-03-29T16:27:06.375Z,67.80
2023-03-29T16:30:22.175Z,67.90
2023-03-29T16:33:23.080Z,67.90
2023-03-29T16:36:42.769Z,67.80
2023-03-29T16:39:12.910Z,68.10
2023-03-29T16:41:45.285Z,68.80
2023-03-29T16:44:29.111Z,68.00
2023-03-29T16:47:03.114Z,68.40
2023-03-29T16:49:39.216Z,68.60
2023-03-29T16:52:44.253Z,68.10
2023-03-29T16:55:16.513Z,68.40
2023-03-29T16:57:59.667Z,68.40
2023-03-29T17:00:53.922Z,68.40
2023-03-29T17:03:33.860Z,68.00
2023-03-29T17:06:04.713Z,68.20
2023-03-29T17:08:34.123Z,68.10
2023-03-29T17:11:26.899Z,67.70
2023-03-29T17:20:24.463Z,69.60
2023-03-29T17:23:11.409Z,69.50
2023-03-29T17:29:40.013Z,70.50
2023-03-29T17:32:45.028Z,70.70
2023-03-29T17:35:36.236Z,71.10
2023-03-29T17:39:35.639Z,70.80
2023-03-29T17:41:51.104Z,70.70
2023-03-29T17:45:10.631Z,71.40
2023-03-29T17:47:51.565Z,71.80
2023-03-29T17:54:31.237Z,73.40
2023-03-29T17:57:29.411Z,72.90
2023-03-29T18:17:44.864Z,74.40
2023-03-29T18:20:22.589Z,74.90
2023-03-29T18:24:39.605Z,75.10
2023-03-29T18:27:27.034Z,75.50
2023-03-29T18:34:15.679Z,76.30
2023-03-29T18:44:06.033Z,77.80
2023-03-29T18:46:49.290Z,77.70
2023-03-29T18:49:55.770Z,77.70
2023-03-29T18:58:10.605Z,78.50
2023-03-29T19:01:34.130Z,78.80
2023-03-29T19:04:39.594Z,78.60
2023-03-29T19:07:19.970Z,79.30
2023-03-29T19:09:51.078Z,79.30
2023-03-29T19:15:44.477Z,79.70
2023-03-29T19:18:31.779Z,79.70
2023-03-29T19:21:48.379Z,80.00
2023-03-29T19:24:35.053Z,80.40
2023-03-29T19:27:42.222Z,80.60
2023-03-29T19:34:48.320Z,80.80
2023-03-29T19:37:45.269Z,81.20
2023-03-29T19:40:24.645Z,81.10
2023-03-29T19:44:16.626Z,81.30
2023-03-29T19:47:20.072Z,80.80
2023-03-29T19:50:23.384Z,81.50
2023-03-29T19:53:09.441Z,81.70
2023-03-29T19:56:01.805Z,81.30
2023-03-29T20:02:28.771Z,81.90
2023-03-29T20:05:19.783Z,82.20
2023-03-29T20:07:59.666Z,82.60
2023-03-29T20:17:32.196Z,83.00
2023-03-29T20:20:30.871Z,83.70
2023-03-29T20:23:26.911Z,83.50
2023-03-29T20:30:46.379Z,84.30
2023-03-29T20:43:49.327Z,84.90
2023-03-29T20:46:26.698Z,85.30
2023-03-29T20:48:55.913Z,85.70
2023-03-29T20:51:30.527Z,86.00
2023-03-29T20:54:04.774Z,85.40
2023-03-29T20:56:38.969Z,85.80
2023-03-29T20:59:12.905Z,85.30
2023-03-29T21:01:46.980Z,85.00
2023-03-29T21:04:18.208Z,85.90
2023-03-29T21:06:50.432Z,86.30
2023-03-29T21:09:23.947Z,86.40
2023-03-29T21:11:56.585Z,86.30
2023-03-29T21:14:23.965Z,86.90
2023-03-29T21:16:59.031Z,86.80
2023-03-29T21:19:27.868Z,87.40
2023-03-29T21:21:58.059Z,87.40
2023-03-29T21:24:29.918Z,87.20
2023-03-29T21:31:08.468Z,87.90
2023-03-29T21:34:37.036Z,87.90
2023-03-29T21:37:32.240Z,88.90
2023-03-29T21:41:27.931Z,89.30
2023-03-29T21:44:35.411Z,89.60
2023-03-29T21:47:15.165Z,89.80
2023-03-29T21:49:42.863Z,88.90
2023-03-29T21:52:28.267Z,88.00
2023-03-29T21:55:02.577Z,88.70
2023-03-29T21:57:51.316Z,89.10
2023-03-29T22:00:42.502Z,88.90
2023-03-29T22:03:38.164Z,88.90
2023-03-29T22:06:34.540Z,88.70
2023-03-29T22:09:16.223Z,89.50
2023-03-29T22:12:18.885Z,89.80
2023-03-29T22:14:56.395Z,90.00
2023-03-29T22:17:44.270Z,90.90
2023-03-29T22:24:16.237Z,92.40
2023-03-29T22:26:51.153Z,93.30
2023-03-29T22:29:55.963Z,92.90
2023-03-29T22:35:39.708Z,93.20
2023-03-29T22:38:34.718Z,93.30
2023-03-29T22:41:34.874Z,92.60
2023-03-29T22:44:27.168Z,93.10
2023-03-29T22:47:52.083Z,93.30
2023-03-29T22:50:30.522Z,94.00
2023-03-29T22:53:27.713Z,94.60
2023-03-29T22:59:38.790Z,94.20
2023-03-29T23:02:20.957Z,94.70
2023-03-29T23:08:38.910Z,95.90
2023-03-29T23:11:32.266Z,96.00
2023-03-29T23:13:59.549Z,96.30
2023-03-29T23:19:35.433Z,96.90
2023-03-29T23:22:12.572Z,97.30
2023-03-29T23:25:13.240Z,97.60
2023-03-29T23:29:41.427Z,98.10
2023-03-29T23:32:18.792Z,98.30
2023-03-29T23:34:54.445Z,98.40
2023-03-29T23:37:35.191Z,98.50
2023-03-29T23:40:36.992Z,99.00
2023-03-29T23:48:13.979Z,98.60
2023-03-29T23:50:49.325Z,99.20
2023-03-29T23:53:50.377Z,99.70
2023-03-29T23:57:01.269Z,99.90
2023-03-29T23:59:52.721Z,99.90
